Time;durP1;ratioP1;P1;durP2;ratioP2;P2;SDS_P1;SDS_P2;PMS_P1;PMS_P2;Temp;Humidity;BMP_temperature;BMP_pressure;BME280_temperature;BME280_humidity;BME280_pressure;Samples;Min_cycle;Max_cycle;Signal;HPM_P1;HPM_P2
2022/11/20 00:01:26;;;;;;;44.27;21.33;;;;;;;;;;5032487;28;20465;-73
2022/11/20 00:03:53;;;;;;;41.57;19.67;;;;;;;;;;5015932;28;20451;-74
2022/11/20 00:06:37;;;;;;;41.23;20.63;;;;;;;;;;5011040;28;20422;-73
2022/11/20 00:09:05;;;;;;;42.73;21.30;;;;;;;;;;5008820;28;20474;-73
2022/11/20 00:11:49;;;;;;;42.80;20.30;;;;;;;;;;5029026;28;20558;-73
2022/11/20 00:14:15;;;;;;;42.20;20.67;;;;;;;;;;5031857;28;20438;-74
2022/11/20 00:16:42;;;;;;;39.20;19.83;;;;;;;;;;5032438;28;20794;-73
2022/11/20 00:19:09;;;;;;;44.40;20.33;;;;;;;;;;5032595;28;20484;-74
2022/11/20 00:21:35;;;;;;;44.20;21.37;;;;;;;;;;5010576;28;20517;-74
2022/11/20 00:24:02;;;;;;;45.97;22.73;;;;;;;;;;5012569;28;20454;-74
2022/11/20 00:26:29;;;;;;;48.30;22.53;;;;;;;;;;5012815;28;20519;-74
2022/11/20 00:28:57;;;;;;;45.37;21.87;;;;;;;;;;5006454;28;20841;-74
2022/11/20 00:31:24;;;;;;;42.83;21.57;;;;;;;;;;5026964;28;20654;-74
2022/11/20 00:33:50;;;;;;;46.90;21.93;;;;;;;;;;5022444;28;20415;-74
2022/11/20 00:36:17;;;;;;;39.90;22.00;;;;;;;;;;5012731;28;20446;-74
2022/11/20 00:38:44;;;;;;;38.93;19.47;;;;;;;;;;5013977;28;20521;-74
2022/11/20 00:41:12;;;;;;;46.47;22.87;;;;;;;;;;5030994;28;20798;-73
2022/11/20 00:43:38;;;;;;;41.03;19.27;;;;;;;;;;4994712;28;20525;-74
2022/11/20 00:46:05;;;;;;;41.33;20.30;;;;;;;;;;5006112;28;20479;-73
2022/11/20 00:48:32;;;;;;;42.33;21.23;;;;;;;;;;5009096;28;20491;-74
2022/11/20 00:50:58;;;;;;;41.17;19.63;;;;;;;;;;5029786;28;20446;-74
2022/11/20 00:53:25;;;;;;;40.37;20.23;;;;;;;;;;5031494;28;20469;-74
2022/11/20 00:55:55;;;;;;;37.80;18.93;;;;;;;;;;5013798;28;20560;-74
2022/11/20 00:58:22;;;;;;;43.83;19.93;;;;;;;;;;5030515;28;20445;-73
2022/11/20 01:00:49;;;;;;;44.37;20.33;;;;;;;;;;5013587;28;20446;-74
2022/11/20 01:03:17;;;;;;;38.60;20.27;;;;;;;;;;5030499;28;20448;-74
2022/11/20 01:05:49;;;;;;;37.90;19.03;;;;;;;;;;5010596;28;20537;-74
2022/11/20 01:08:16;;;;;;;36.37;17.80;;;;;;;;;;5026445;28;20937;-73
2022/11/20 01:10:42;;;;;;;35.60;17.00;;;;;;;;;;5029793;28;20963;-73
2022/11/20 01:15:54;;;;;;;33.67;16.33;;;;;;;;;;5029203;28;20541;-74
2022/11/20 01:18:20;;;;;;;33.40;17.40;;;;;;;;;;5030086;28;20848;-74
2022/11/20 01:20:47;;;;;;;31.50;16.50;;;;;;;;;;5029809;28;20446;-74
2022/11/20 01:23:35;;;;;;;31.50;15.87;;;;;;;;;;5030839;28;20778;-74
2022/11/20 01:26:02;;;;;;;29.90;15.50;;;;;;;;;;5006937;28;20459;-74
2022/11/20 01:28:29;;;;;;;32.90;15.57;;;;;;;;;;5011485;28;20838;-74
2022/11/20 01:30:56;;;;;;;33.13;16.83;;;;;;;;;;5010456;28;20528;-73
2022/11/20 01:33:22;;;;;;;29.87;16.53;;;;;;;;;;5007452;28;20533;-73
2022/11/20 01:35:49;;;;;;;32.47;16.47;;;;;;;;;;4993640;28;20462;-74
2022/11/20 01:38:16;;;;;;;28.23;16.00;;;;;;;;;;5022048;28;20454;-74
2022/11/20 01:40:42;;;;;;;31.20;15.80;;;;;;;;;;5012489;28;20450;-74
2022/11/20 01:43:21;;;;;;;29.57;16.43;;;;;;;;;;5031180;28;20488;-74
2022/11/20 01:46:07;;;;;;;32.10;15.93;;;;;;;;;;5009770;28;20457;-74
2022/11/20 01:48:38;;;;;;;29.83;15.07;;;;;;;;;;5011845;28;20438;-74
2022/11/20 01:51:06;;;;;;;31.00;16.77;;;;;;;;;;5028656;28;20450;-73
2022/11/20 01:53:33;;;;;;;33.97;16.83;;;;;;;;;;5007373;28;20548;-74
2022/11/20 01:56:00;;;;;;;33.33;17.00;;;;;;;;;;4992644;28;20502;-74
2022/11/20 01:58:31;;;;;;;34.73;17.47;;;;;;;;;;4984253;28;20546;-74
2022/11/20 02:00:58;;;;;;;33.50;17.63;;;;;;;;;;4973320;28;20514;-74
2022/11/20 02:03:42;;;;;;;35.87;18.77;;;;;;;;;;5001409;28;20442;-74
2022/11/20 02:06:14;;;;;;;35.30;18.87;;;;;;;;;;4992543;28;20483;-74
2022/11/20 02:08:41;;;;;;;36.37;18.07;;;;;;;;;;4991487;28;21017;-74
2022/11/20 02:11:07;;;;;;;36.53;18.47;;;;;;;;;;5009980;28;20493;-74
2022/11/20 02:13:43;;;;;;;33.17;17.43;;;;;;;;;;5008799;28;20540;-74
2022/11/20 02:16:17;;;;;;;37.77;19.40;;;;;;;;;;4980255;28;20455;-74
2022/11/20 02:18:43;;;;;;;34.50;17.77;;;;;;;;;;4991450;28;20549;-74
2022/11/20 02:21:15;;;;;;;37.03;18.93;;;;;;;;;;4987118;28;20537;-73
2022/11/20 02:23:53;;;;;;;36.33;18.23;;;;;;;;;;4974592;28;20546;-74
2022/11/20 02:26:20;;;;;;;35.27;18.37;;;;;;;;;;4978437;28;20458;-74
2022/11/20 02:28:46;;;;;;;39.43;19.13;;;;;;;;;;4996353;28;20514;-74
2022/11/20 02:31:13;;;;;;;34.53;17.50;;;;;;;;;;4996435;28;20838;-74
2022/11/20 02:33:40;;;;;;;34.57;17.90;;;;;;;;;;5013699;28;20570;-73
2022/11/20 02:36:07;;;;;;;41.07;18.33;;;;;;;;;;5013245;28;20850;-74
2022/11/20 02:38:33;;;;;;;37.83;17.57;;;;;;;;;;4992716;28;20505;-74
2022/11/20 02:41:00;;;;;;;40.00;19.70;;;;;;;;;;4978159;28;20455;-74
2022/11/20 02:43:27;;;;;;;36.77;18.77;;;;;;;;;;5014420;28;20443;-74
2022/11/20 02:45:54;;;;;;;37.90;19.60;;;;;;;;;;4996463;28;20450;-74
2022/11/20 02:48:20;;;;;;;36.97;19.27;;;;;;;;;;4995785;28;20558;-74
2022/11/20 02:50:50;;;;;;;40.63;19.83;;;;;;;;;;5011443;28;20455;-74
2022/11/20 02:53:17;;;;;;;39.50;19.93;;;;;;;;;;4995853;28;20517;-74
2022/11/20 02:55:43;;;;;;;40.10;19.87;;;;;;;;;;5030259;28;20532;-74
2022/11/20 02:58:10;;;;;;;39.97;19.00;;;;;;;;;;5033034;28;20529;-73
2022/11/20 03:00:36;;;;;;;38.63;19.33;;;;;;;;;;5015322;28;20450;-73
2022/11/20 03:03:03;;;;;;;37.57;19.03;;;;;;;;;;5032182;28;20480;-73
2022/11/20 03:05:30;;;;;;;40.60;19.73;;;;;;;;;;5032949;28;20481;-73
2022/11/20 03:07:56;;;;;;;38.93;19.27;;;;;;;;;;5032999;28;20537;-74
2022/11/20 03:10:23;;;;;;;39.80;18.80;;;;;;;;;;5031657;28;20535;-74
2022/11/20 03:12:55;;;;;;;39.07;19.57;;;;;;;;;;5021538;28;20910;-74
2022/11/20 03:15:22;;;;;;;38.00;18.87;;;;;;;;;;5029566;28;20465;-73
2022/11/20 03:17:49;;;;;;;39.30;18.87;;;;;;;;;;5033593;28;20469;-74
2022/11/20 03:20:15;;;;;;;33.60;17.70;;;;;;;;;;5032298;28;20458;-74
2022/11/20 03:22:42;;;;;;;35.63;16.93;;;;;;;;;;5032785;28;20945;-73
2022/11/20 03:25:26;;;;;;;37.67;19.37;;;;;;;;;;5013679;28;20470;-73
2022/11/20 03:27:53;;;;;;;32.70;17.77;;;;;;;;;;5033087;28;20537;-74
2022/11/20 03:30:19;;;;;;;36.57;18.53;;;;;;;;;;5014572;28;20453;-73
2022/11/20 03:32:47;;;;;;;34.00;18.23;;;;;;;;;;5032239;28;20560;-74
2022/11/20 03:35:13;;;;;;;37.37;17.60;;;;;;;;;;5014594;28;20473;-73
2022/11/20 03:37:40;;;;;;;36.53;18.77;;;;;;;;;;5012152;28;20454;-73
2022/11/20 03:40:07;;;;;;;34.07;17.93;;;;;;;;;;5026693;28;20829;-73
2022/11/20 03:42:45;;;;;;;31.83;17.17;;;;;;;;;;5031925;28;20445;-73
2022/11/20 03:45:16;;;;;;;31.83;16.60;;;;;;;;;;5032309;28;20537;-74
2022/11/20 03:47:42;;;;;;;32.90;17.57;;;;;;;;;;4998176;28;20470;-74
2022/11/20 03:50:09;;;;;;;33.27;17.07;;;;;;;;;;5032176;28;20549;-74
2022/11/20 03:52:36;;;;;;;33.20;16.90;;;;;;;;;;4999216;28;20483;-73
2022/11/20 03:55:03;;;;;;;31.13;16.73;;;;;;;;;;5030657;28;20501;-73
2022/11/20 03:57:29;;;;;;;34.73;17.57;;;;;;;;;;5031941;28;20520;-73
2022/11/20 03:59:56;;;;;;;35.10;17.53;;;;;;;;;;5014561;28;20474;-73
2022/11/20 04:02:22;;;;;;;32.37;16.60;;;;;;;;;;5030814;28;20458;-73
2022/11/20 04:04:49;;;;;;;36.07;18.13;;;;;;;;;;5031722;28;21176;-73
2022/11/20 04:07:16;;;;;;;32.93;17.03;;;;;;;;;;5032081;28;20448;-74
2022/11/20 04:09:42;;;;;;;33.40;17.27;;;;;;;;;;5031711;28;20432;-73
2022/11/20 04:12:09;;;;;;;36.03;17.63;;;;;;;;;;5030292;28;20497;-73
2022/11/20 04:14:36;;;;;;;32.43;16.47;;;;;;;;;;5032167;28;20449;-74
2022/11/20 04:17:03;;;;;;;32.03;16.77;;;;;;;;;;5004610;28;20503;-74
2022/11/20 04:19:29;;;;;;;32.67;17.23;;;;;;;;;;4995568;28;20471;-73
2022/11/20 04:21:56;;;;;;;32.33;16.63;;;;;;;;;;5013349;28;20454;-74
2022/11/20 04:24:23;;;;;;;32.60;16.93;;;;;;;;;;5014244;28;20473;-74
2022/11/20 04:26:49;;;;;;;37.57;17.13;;;;;;;;;;5030468;28;20544;-73
2022/11/20 04:29:16;;;;;;;34.53;17.57;;;;;;;;;;5010687;28;20530;-74
2022/11/20 04:31:42;;;;;;;38.27;18.00;;;;;;;;;;4994474;28;20490;-73
2022/11/20 04:34:10;;;;;;;33.43;17.13;;;;;;;;;;5020496;28;20474;-74
2022/11/20 04:36:37;;;;;;;37.43;17.83;;;;;;;;;;5013802;28;20814;-73
2022/11/20 04:39:04;;;;;;;35.30;18.03;;;;;;;;;;5014414;28;20545;-74
2022/11/20 04:41:31;;;;;;;37.93;18.40;;;;;;;;;;5030476;28;20860;-73
2022/11/20 04:44:15;;;;;;;34.67;17.07;;;;;;;;;;5013304;28;20898;-74
2022/11/20 04:46:42;;;;;;;40.93;18.40;;;;;;;;;;5030314;28;20535;-73
2022/11/20 04:49:26;;;;;;;39.07;17.97;;;;;;;;;;5002888;28;20460;-74
2022/11/20 04:51:53;;;;;;;41.23;19.17;;;;;;;;;;5030833;28;20473;-74
2022/11/20 04:54:37;;;;;;;40.77;18.10;;;;;;;;;;5023324;28;20481;-73
2022/11/20 04:57:03;;;;;;;35.13;17.17;;;;;;;;;;5012383;28;21271;-73
2022/11/20 04:59:33;;;;;;;36.37;17.30;;;;;;;;;;5030885;28;20454;-73
2022/11/20 05:01:59;;;;;;;39.43;18.73;;;;;;;;;;5030552;28;20438;-73
2022/11/20 05:04:26;;;;;;;34.43;17.60;;;;;;;;;;5029872;28;20464;-73
2022/11/20 05:06:53;;;;;;;39.83;18.73;;;;;;;;;;5031514;28;20600;-73
2022/11/20 05:09:19;;;;;;;35.43;17.33;;;;;;;;;;5031616;28;21251;-73
2022/11/20 05:11:46;;;;;;;36.70;17.63;;;;;;;;;;5027860;28;20469;-73
2022/11/20 05:14:17;;;;;;;38.10;17.50;;;;;;;;;;5020567;28;20881;-73
2022/11/20 05:16:43;;;;;;;37.63;18.60;;;;;;;;;;5029257;28;20450;-73
2022/11/20 05:19:10;;;;;;;38.70;17.53;;;;;;;;;;5029976;28;20461;-73
2022/11/20 05:21:36;;;;;;;36.77;16.90;;;;;;;;;;5030232;28;20541;-73
2022/11/20 05:24:04;;;;;;;40.17;18.70;;;;;;;;;;5012516;28;20442;-72
2022/11/20 05:26:30;;;;;;;36.60;16.90;;;;;;;;;;5013050;28;20464;-72
2022/11/20 05:28:57;;;;;;;38.53;17.53;;;;;;;;;;5030586;28;20507;-72
2022/11/20 05:31:24;;;;;;;35.03;16.93;;;;;;;;;;5010945;28;20540;-73
2022/11/20 05:33:53;;;;;;;37.50;16.50;;;;;;;;;;4994697;28;20478;-73
2022/11/20 05:36:20;;;;;;;36.63;17.87;;;;;;;;;;5011035;28;20490;-73
2022/11/20 05:38:47;;;;;;;29.17;14.33;;;;;;;;;;5012516;28;20850;-72
2022/11/20 05:41:17;;;;;;;33.30;15.93;;;;;;;;;;5030150;28;20438;-72
2022/11/20 05:43:44;;;;;;;32.77;15.30;;;;;;;;;;4997139;28;20434;-73
2022/11/20 05:46:11;;;;;;;28.90;13.17;;;;;;;;;;5029536;28;20451;-73
2022/11/20 05:48:38;;;;;;;36.47;17.37;;;;;;;;;;5029129;28;20575;-73
2022/11/20 05:51:06;;;;;;;35.17;17.37;;;;;;;;;;5012120;28;20896;-72
2022/11/20 05:53:33;;;;;;;31.90;15.87;;;;;;;;;;5029955;28;20488;-73
2022/11/20 05:56:00;;;;;;;36.67;17.33;;;;;;;;;;5010365;28;20577;-72
2022/11/20 05:58:27;;;;;;;34.67;16.70;;;;;;;;;;5029827;28;20521;-73
2022/11/20 06:00:53;;;;;;;35.23;16.87;;;;;;;;;;5002375;28;20551;-73
2022/11/20 06:03:20;;;;;;;36.27;17.33;;;;;;;;;;5023497;28;20450;-73
2022/11/20 06:05:47;;;;;;;33.83;15.57;;;;;;;;;;5009243;28;20477;-72
2022/11/20 06:08:13;;;;;;;39.57;17.90;;;;;;;;;;5030709;28;20426;-73
2022/11/20 06:10:40;;;;;;;34.40;16.27;;;;;;;;;;5012472;28;20477;-73
2022/11/20 06:13:07;;;;;;;33.90;16.87;;;;;;;;;;5030396;28;21037;-73
2022/11/20 06:15:33;;;;;;;33.53;15.87;;;;;;;;;;5022031;28;20874;-73
2022/11/20 06:18:00;;;;;;;34.40;16.03;;;;;;;;;;5009202;28;20976;-73
2022/11/20 06:20:27;;;;;;;35.80;15.70;;;;;;;;;;5023852;28;20473;-73
2022/11/20 06:22:53;;;;;;;31.93;15.40;;;;;;;;;;5001893;28;20446;-72
2022/11/20 06:25:20;;;;;;;35.00;15.37;;;;;;;;;;5010173;28;20473;-74
2022/11/20 06:27:47;;;;;;;33.50;15.27;;;;;;;;;;5029156;28;20438;-73
2022/11/20 06:30:14;;;;;;;33.13;14.33;;;;;;;;;;5009372;28;21080;-75
2022/11/20 06:32:41;;;;;;;31.77;15.00;;;;;;;;;;5027240;28;20454;-76
2022/11/20 06:35:09;;;;;;;31.33;15.53;;;;;;;;;;5026650;28;20534;-75
2022/11/20 06:37:36;;;;;;;30.83;14.97;;;;;;;;;;5026905;28;20437;-76
2022/11/20 06:40:03;;;;;;;32.27;15.40;;;;;;;;;;5024040;28;20465;-75
2022/11/20 06:42:30;;;;;;;31.40;14.70;;;;;;;;;;5024283;28;20450;-73
2022/11/20 06:44:57;;;;;;;31.10;14.57;;;;;;;;;;5006344;28;20473;-72
2022/11/20 06:47:24;;;;;;;31.17;14.43;;;;;;;;;;5027332;28;20449;-73
2022/11/20 06:49:51;;;;;;;30.37;13.47;;;;;;;;;;5027191;28;20473;-75
2022/11/20 06:52:18;;;;;;;26.53;13.50;;;;;;;;;;5026769;28;20556;-75
2022/11/20 06:54:44;;;;;;;28.57;13.83;;;;;;;;;;5026321;28;20520;-73
2022/11/20 06:57:11;;;;;;;29.20;13.07;;;;;;;;;;5009990;28;21175;-71
2022/11/20 06:59:39;;;;;;;28.63;13.50;;;;;;;;;;5028021;28;20798;-73
2022/11/20 07:02:08;;;;;;;34.17;14.67;;;;;;;;;;5009586;28;20437;-74
2022/11/20 07:04:35;;;;;;;30.80;12.90;;;;;;;;;;5006854;28;20445;-74
2022/11/20 07:07:02;;;;;;;30.40;14.50;;;;;;;;;;5012531;28;20472;-73
2022/11/20 07:09:29;;;;;;;26.17;12.70;;;;;;;;;;5008208;28;20450;-73
2022/11/20 07:11:55;;;;;;;29.57;14.03;;;;;;;;;;5008701;28;20450;-72
2022/11/20 07:14:22;;;;;;;28.23;13.73;;;;;;;;;;5025953;28;20481;-74
2022/11/20 07:16:49;;;;;;;29.37;13.73;;;;;;;;;;5031355;28;20430;-73
2022/11/20 07:19:15;;;;;;;34.63;15.33;;;;;;;;;;5012477;28;20450;-72
2022/11/20 07:21:42;;;;;;;31.63;14.33;;;;;;;;;;5031697;28;20524;-76
2022/11/20 07:24:26;;;;;;;30.50;15.33;;;;;;;;;;5029284;28;20880;-72
2022/11/20 07:26:52;;;;;;;32.30;15.07;;;;;;;;;;5025702;28;20505;-72
2022/11/20 07:29:19;;;;;;;36.73;16.50;;;;;;;;;;5029493;28;20925;-75
2022/11/20 07:31:46;;;;;;;48.37;22.77;;;;;;;;;;5012197;28;20450;-71
2022/11/20 07:34:13;;;;;;;35.40;17.60;;;;;;;;;;5029057;28;20488;-74
2022/11/20 07:36:40;;;;;;;33.87;16.63;;;;;;;;;;5025533;28;20997;-73
2022/11/20 07:39:06;;;;;;;35.53;16.07;;;;;;;;;;5019228;28;20458;-73
2022/11/20 07:41:33;;;;;;;34.53;17.40;;;;;;;;;;5027520;28;20446;-74
2022/11/20 07:44:18;;;;;;;36.83;17.20;;;;;;;;;;5028633;28;20418;-75
2022/11/20 07:46:45;;;;;;;34.80;17.60;;;;;;;;;;5012222;28;20469;-75
2022/11/20 07:49:14;;;;;;;37.37;17.40;;;;;;;;;;4996995;28;20434;-77
2022/11/20 07:51:41;;;;;;;31.93;15.30;;;;;;;;;;5030407;28;20435;-71
2022/11/20 07:54:08;;;;;;;31.70;15.90;;;;;;;;;;5029045;28;20481;-74
2022/11/20 07:56:35;;;;;;;28.67;14.97;;;;;;;;;;5007567;28;20442;-73
2022/11/20 07:59:03;;;;;;;34.93;15.03;;;;;;;;;;5012254;28;20481;-77
2022/11/20 08:01:29;;;;;;;32.30;16.07;;;;;;;;;;5006268;28;20443;-76
2022/11/20 08:03:56;;;;;;;32.93;16.90;;;;;;;;;;5018263;28;21087;-72
2022/11/20 08:06:24;;;;;;;33.43;17.33;;;;;;;;;;5008534;28;20799;-72
2022/11/20 08:08:51;;;;;;;36.33;18.20;;;;;;;;;;5005336;28;21169;-72
2022/11/20 08:14:12;;;;;;;41.63;19.13;;;;;;;;;;5007391;28;20479;-72
2022/11/20 08:16:45;;;;;;;39.50;19.13;;;;;;;;;;4993347;28;20450;-71
2022/11/20 08:19:12;;;;;;;40.30;17.03;;;;;;;;;;4999926;28;20449;-72
2022/11/20 08:21:58;;;;;;;40.90;17.90;;;;;;;;;;5007799;28;20445;-72
2022/11/20 08:24:26;;;;;;;36.43;18.10;;;;;;;;;;5026697;28;20462;-72
2022/11/20 08:26:52;;;;;;;39.17;18.67;;;;;;;;;;5023043;28;20623;-72
2022/11/20 08:29:19;;;;;;;40.23;18.53;;;;;;;;;;5019287;28;20459;-72
2022/11/20 08:31:46;;;;;;;43.60;18.00;;;;;;;;;;5018232;28;20491;-69
2022/11/20 08:34:13;;;;;;;41.30;19.40;;;;;;;;;;5004951;28;20462;-71
2022/11/20 08:36:44;;;;;;;36.93;17.77;;;;;;;;;;5003595;28;20469;-71
2022/11/20 08:39:11;;;;;;;46.50;20.07;;;;;;;;;;5028338;28;20450;-72
2022/11/20 08:41:38;;;;;;;44.33;20.23;;;;;;;;;;5008043;28;20473;-72
2022/11/20 08:44:06;;;;;;;39.80;18.03;;;;;;;;;;5019390;28;20426;-72
2022/11/20 08:46:33;;;;;;;41.13;18.67;;;;;;;;;;5026502;28;20446;-71
2022/11/20 08:49:00;;;;;;;40.90;19.30;;;;;;;;;;5002060;28;20526;-72
2022/11/20 08:51:27;;;;;;;38.27;17.33;;;;;;;;;;5027086;28;20449;-72
2022/11/20 08:53:53;;;;;;;40.40;18.53;;;;;;;;;;5000986;28;20477;-72
2022/11/20 08:56:20;;;;;;;40.73;17.73;;;;;;;;;;5025969;28;20506;-71
2022/11/20 08:58:46;;;;;;;37.57;17.23;;;;;;;;;;5014418;28;20493;-71
2022/11/20 09:01:33;;;;;;;43.00;18.20;;;;;;;;;;5024321;28;20438;-72
2022/11/20 09:04:00;;;;;;;41.90;18.47;;;;;;;;;;5020047;28;21216;-72
2022/11/20 09:06:27;;;;;;;41.20;18.13;;;;;;;;;;5025439;28;20884;-71
2022/11/20 09:08:54;;;;;;;42.47;18.77;;;;;;;;;;5014542;28;20783;-71
2022/11/20 09:11:21;;;;;;;43.83;20.20;;;;;;;;;;5022530;28;20437;-72
2022/11/20 09:13:47;;;;;;;42.57;20.17;;;;;;;;;;5000372;28;20462;-72
2022/11/20 09:16:14;;;;;;;45.87;20.27;;;;;;;;;;5021756;28;20443;-72
2022/11/20 09:18:41;;;;;;;41.40;19.40;;;;;;;;;;5007319;28;20430;-72
2022/11/20 09:21:11;;;;;;;46.90;20.23;;;;;;;;;;5009290;28;20882;-72
2022/11/20 09:23:39;;;;;;;47.57;21.00;;;;;;;;;;4999930;28;20443;-72
2022/11/20 09:26:06;;;;;;;44.93;22.20;;;;;;;;;;5025835;28;21116;-72
2022/11/20 09:28:33;;;;;;;51.27;22.47;;;;;;;;;;5016176;28;20442;-71
2022/11/20 09:30:59;;;;;;;57.47;24.23;;;;;;;;;;5013899;28;20434;-72
2022/11/20 09:33:26;;;;;;;55.13;23.57;;;;;;;;;;5008831;28;21062;-72
2022/11/20 09:35:53;;;;;;;53.37;23.53;;;;;;;;;;5008999;28;20525;-72
2022/11/20 09:38:20;;;;;;;42.13;19.60;;;;;;;;;;5024666;28;20611;-72
2022/11/20 09:40:49;;;;;;;40.43;20.33;;;;;;;;;;5013236;28;20470;-73
2022/11/20 09:43:19;;;;;;;47.60;21.13;;;;;;;;;;5024002;28;20441;-72
2022/11/20 09:46:05;;;;;;;49.50;21.37;;;;;;;;;;5010833;28;20505;-72
2022/11/20 09:48:42;;;;;;;45.80;20.83;;;;;;;;;;5017174;28;20451;-73
2022/11/20 09:51:12;;;;;;;49.67;21.73;;;;;;;;;;4990719;28;20476;-73
2022/11/20 09:53:51;;;;;;;45.50;21.20;;;;;;;;;;4997345;28;20466;-72
2022/11/20 09:56:39;;;;;;;44.23;18.47;;;;;;;;;;5007516;28;20443;-72
2022/11/20 09:59:06;;;;;;;41.87;18.93;;;;;;;;;;5020260;28;20434;-72
2022/11/20 10:01:34;;;;;;;46.53;20.20;;;;;;;;;;4992355;28;20428;-72
2022/11/20 10:04:15;;;;;;;43.30;20.20;;;;;;;;;;5006299;28;20779;-69
2022/11/20 10:07:13;;;;;;;41.77;19.30;;;;;;;;;;4999872;28;20425;-72
2022/11/20 10:09:57;;;;;;;46.43;20.77;;;;;;;;;;4999873;28;20441;-72
2022/11/20 10:12:31;;;;;;;47.60;21.13;;;;;;;;;;5019332;28;20442;-72
2022/11/20 10:15:04;;;;;;;43.37;19.70;;;;;;;;;;5010663;28;20961;-73
2022/11/20 10:17:48;;;;;;;49.60;20.53;;;;;;;;;;5019662;28;20441;-73
2022/11/20 10:20:34;;;;;;;41.80;20.10;;;;;;;;;;5009962;28;20446;-59
2022/11/20 10:23:00;;;;;;;54.87;21.00;;;;;;;;;;5020209;28;20449;-73
2022/11/20 10:25:38;;;;;;;54.80;22.00;;;;;;;;;;5005371;28;20444;-73
2022/11/20 10:28:06;;;;;;;52.83;22.50;;;;;;;;;;5037943;28;21095;-73
2022/11/20 10:30:34;;;;;;;50.83;21.37;;;;;;;;;;5033436;28;20525;-78
2022/11/20 10:33:05;;;;;;;58.57;23.97;;;;;;;;;;4999547;28;21232;-79
2022/11/20 10:35:48;;;;;;;49.37;20.23;;;;;;;;;;5004390;28;20506;-78
2022/11/20 10:38:20;;;;;;;51.80;22.73;;;;;;;;;;5018963;28;20430;-75
2022/11/20 10:40:52;;;;;;;53.23;22.10;;;;;;;;;;4971142;28;20922;-74
2022/11/20 10:43:25;;;;;;;54.23;22.73;;;;;;;;;;5027180;28;20438;-79
2022/11/20 10:46:10;;;;;;;55.27;22.67;;;;;;;;;;5026521;28;20590;-81
2022/11/20 10:48:43;;;;;;;52.30;21.53;;;;;;;;;;4988761;28;20519;-76
2022/11/20 10:51:17;;;;;;;51.93;20.93;;;;;;;;;;5015502;28;20995;-77
2022/11/20 10:53:46;;;;;;;53.47;22.37;;;;;;;;;;5018161;28;20541;-78
2022/11/20 10:56:20;;;;;;;49.53;20.73;;;;;;;;;;5011337;28;21220;-79
2022/11/20 10:59:01;;;;;;;43.77;17.83;;;;;;;;;;5010165;28;20485;-74
2022/11/20 11:01:28;;;;;;;44.87;20.10;;;;;;;;;;5011429;28;20448;-78
2022/11/20 11:03:55;;;;;;;48.17;20.50;;;;;;;;;;5031171;28;20440;-79
2022/11/20 11:06:25;;;;;;;45.50;20.20;;;;;;;;;;5013382;28;20433;-78
2022/11/20 11:08:53;;;;;;;45.53;20.03;;;;;;;;;;5010694;28;20431;-79
2022/11/20 11:11:20;;;;;;;40.83;19.17;;;;;;;;;;5008288;28;20974;-83
2022/11/20 11:13:48;;;;;;;41.10;19.23;;;;;;;;;;5031754;28;20837;-78
2022/11/20 11:16:22;;;;;;;53.67;22.20;;;;;;;;;;5031252;28;20434;-80
2022/11/20 11:18:49;;;;;;;45.97;19.63;;;;;;;;;;5030856;28;20961;-81
2022/11/20 11:21:25;;;;;;;48.63;21.30;;;;;;;;;;5001615;28;20442;-80
2022/11/20 11:23:59;;;;;;;46.70;21.27;;;;;;;;;;5028385;28;20442;-77
2022/11/20 11:26:59;;;;;;;43.97;20.27;;;;;;;;;;4998917;28;20497;-77
2022/11/20 11:29:32;;;;;;;47.20;21.57;;;;;;;;;;5029913;28;20446;-81
2022/11/20 11:32:06;;;;;;;53.80;21.90;;;;;;;;;;4991700;28;20439;-82
2022/11/20 11:34:33;;;;;;;48.53;21.10;;;;;;;;;;5010652;28;21001;-79
2022/11/20 11:37:00;;;;;;;43.03;20.20;;;;;;;;;;5014502;28;20463;-77
2022/11/20 11:39:27;;;;;;;45.90;20.40;;;;;;;;;;5000606;28;20438;-78
2022/11/20 11:41:54;;;;;;;47.87;20.53;;;;;;;;;;5000465;28;20479;-77
2022/11/20 11:47:11;;;;;;;45.37;20.90;;;;;;;;;;5008256;28;20493;-78
2022/11/20 11:49:38;;;;;;;48.83;21.33;;;;;;;;;;5022569;28;20446;-80
2022/11/20 11:52:17;;;;;;;47.77;21.33;;;;;;;;;;5030546;28;20435;-79
2022/11/20 11:54:48;;;;;;;49.87;21.73;;;;;;;;;;5011648;28;20485;-75
2022/11/20 11:57:33;;;;;;;47.63;21.73;;;;;;;;;;5005767;28;20431;-77
2022/11/20 12:00:05;;;;;;;47.87;21.47;;;;;;;;;;5029086;28;21138;-75
2022/11/20 12:02:40;;;;;;;49.13;22.20;;;;;;;;;;5011523;28;20454;-75
2022/11/20 12:05:25;;;;;;;49.83;21.87;;;;;;;;;;5011874;28;20441;-82
2022/11/20 12:08:21;;;;;;;48.63;21.43;;;;;;;;;;5013181;28;20525;-78
2022/11/20 12:10:59;;;;;;;54.63;22.13;;;;;;;;;;5011468;28;20472;-78
2022/11/20 12:14:05;;;;;;;50.23;20.97;;;;;;;;;;5022181;28;21062;-81
2022/11/20 12:16:35;;;;;;;43.87;21.37;;;;;;;;;;4956019;28;20496;-78
2022/11/20 12:19:01;;;;;;;50.37;21.97;;;;;;;;;;4969896;28;21185;-78
2022/11/20 12:21:32;;;;;;;46.87;21.40;;;;;;;;;;4962475;28;20437;-75
2022/11/20 12:23:59;;;;;;;44.97;22.03;;;;;;;;;;4968463;28;20448;-76
2022/11/20 12:26:44;;;;;;;43.77;21.40;;;;;;;;;;4954227;28;20496;-77
2022/11/20 12:29:15;;;;;;;53.47;23.53;;;;;;;;;;5028400;28;20977;-77
2022/11/20 12:31:42;;;;;;;50.73;23.97;;;;;;;;;;5029015;28;21175;-77
2022/11/20 12:34:13;;;;;;;48.73;22.67;;;;;;;;;;5029333;28;20441;-79
2022/11/20 12:36:40;;;;;;;54.70;23.13;;;;;;;;;;4994151;28;21011;-78
2022/11/20 12:39:14;;;;;;;52.57;22.77;;;;;;;;;;5010844;28;20451;-75
2022/11/20 12:45:09;;;;;;;48.87;22.17;;;;;;;;;;5015460;28;20520;-80
2022/11/20 12:47:54;;;;;;;49.07;23.27;;;;;;;;;;5027488;28;20453;-80
2022/11/20 12:50:21;;;;;;;47.93;23.03;;;;;;;;;;5029429;28;20509;-79
2022/11/20 12:52:52;;;;;;;50.07;23.77;;;;;;;;;;5012612;28;20438;-80
2022/11/20 12:55:37;;;;;;;52.20;24.03;;;;;;;;;;5020329;28;20482;-80
2022/11/20 12:58:10;;;;;;;51.30;23.80;;;;;;;;;;5030421;28;20937;-80
2022/11/20 13:00:37;;;;;;;47.27;22.53;;;;;;;;;;5029713;28;20434;-81
2022/11/20 13:03:13;;;;;;;46.37;22.43;;;;;;;;;;4996478;28;20450;-81
2022/11/20 13:06:00;;;;;;;48.27;21.73;;;;;;;;;;5011807;28;20481;-80
2022/11/20 13:08:39;;;;;;;38.20;18.87;;;;;;;;;;5007516;28;20473;-60
2022/11/20 13:11:21;;;;;;;48.37;22.10;;;;;;;;;;5025935;28;20453;-61
2022/11/20 13:14:11;;;;;;;51.57;23.83;;;;;;;;;;5006364;28;20461;-60
2022/11/20 13:16:41;;;;;;;47.27;23.17;;;;;;;;;;5026255;28;20617;-60
2022/11/20 13:19:09;;;;;;;45.07;21.47;;;;;;;;;;5005944;28;20438;-60
2022/11/20 13:21:40;;;;;;;47.40;22.23;;;;;;;;;;5004401;28;20431;-60
2022/11/20 13:24:07;;;;;;;43.90;22.03;;;;;;;;;;5021272;28;20441;-60
2022/11/20 13:27:09;;;;;;;45.97;21.70;;;;;;;;;;5021904;28;20534;-81
2022/11/20 13:29:37;;;;;;;45.60;21.63;;;;;;;;;;5019679;28;20430;-81
2022/11/20 13:32:13;;;;;;;46.17;21.73;;;;;;;;;;4994501;28;20438;-74
2022/11/20 13:34:50;;;;;;;47.07;21.13;;;;;;;;;;5008683;28;20560;-78
2022/11/20 13:37:37;;;;;;;44.07;20.37;;;;;;;;;;5027214;28;20431;-74
2022/11/20 13:40:10;;;;;;;44.77;21.20;;;;;;;;;;5027836;28;20451;-76
2022/11/20 13:42:40;;;;;;;44.07;20.57;;;;;;;;;;5017165;28;20501;-78
2022/11/20 13:45:22;;;;;;;45.53;20.53;;;;;;;;;;5009650;28;20453;-77
2022/11/20 13:47:53;;;;;;;46.40;21.43;;;;;;;;;;5010593;28;20460;-80
2022/11/20 13:50:19;;;;;;;48.57;22.50;;;;;;;;;;5026636;28;20507;-75
2022/11/20 13:53:02;;;;;;;46.13;20.90;;;;;;;;;;5010958;28;20492;-79
2022/11/20 13:55:35;;;;;;;41.57;20.00;;;;;;;;;;5005400;28;20537;-80
2022/11/20 13:58:31;;;;;;;40.53;19.70;;;;;;;;;;5002718;28;21005;-76
2022/11/20 14:01:00;;;;;;;46.27;21.30;;;;;;;;;;4983983;28;20450;-78
2022/11/20 14:03:29;;;;;;;45.23;20.10;;;;;;;;;;5010446;28;20466;-78
2022/11/20 14:06:23;;;;;;;47.93;21.23;;;;;;;;;;5027718;28;20945;-78
2022/11/20 14:08:50;;;;;;;41.90;19.70;;;;;;;;;;5009944;28;20928;-74
2022/11/20 14:11:19;;;;;;;43.13;21.00;;;;;;;;;;5024892;28;20797;-73
2022/11/20 14:13:55;;;;;;;45.60;21.90;;;;;;;;;;5007635;28;20454;-73
2022/11/20 14:16:22;;;;;;;50.33;22.93;;;;;;;;;;5024611;28;20485;-73
2022/11/20 14:18:49;;;;;;;44.17;21.10;;;;;;;;;;5022366;28;20435;-74
2022/11/20 14:21:26;;;;;;;45.73;21.47;;;;;;;;;;5003865;28;20443;-74
2022/11/20 14:24:05;;;;;;;50.17;21.97;;;;;;;;;;5027437;28;20800;-74
2022/11/20 14:26:32;;;;;;;46.07;21.43;;;;;;;;;;5030050;28;20438;-73
2022/11/20 14:28:59;;;;;;;47.47;21.40;;;;;;;;;;5030229;28;20437;-77
2022/11/20 14:31:26;;;;;;;49.23;22.33;;;;;;;;;;5007985;28;20445;-77
2022/11/20 14:33:53;;;;;;;50.43;22.70;;;;;;;;;;5023742;28;20429;-78
2022/11/20 14:36:21;;;;;;;45.40;21.80;;;;;;;;;;5035733;28;20481;-73
2022/11/20 14:38:48;;;;;;;46.40;21.80;;;;;;;;;;5012359;28;20955;-72
2022/11/20 14:41:24;;;;;;;50.27;22.47;;;;;;;;;;5015646;28;20449;-76
2022/11/20 14:43:53;;;;;;;49.17;21.73;;;;;;;;;;5029262;28;20544;-75
2022/11/20 14:46:20;;;;;;;53.40;22.63;;;;;;;;;;5029956;28;20461;-74